createdAt,value
2023-04-24T00:01:25.088Z,97346.91
2023-04-24T00:03:51.889Z,97353.72
2023-04-24T00:06:18.703Z,97369.00
2023-04-24T00:08:46.520Z,97390.69
2023-04-24T00:11:13.234Z,97394.28
2023-04-24T00:13:40.106Z,97396.34
2023-04-24T00:16:06.956Z,97391.81
2023-04-24T00:18:33.822Z,97406.38
2023-04-24T00:21:00.982Z,97420.06
2023-04-24T00:23:29.134Z,97428.84
2023-04-24T00:25:55.863Z,97446.84
2023-04-24T00:28:23.562Z,97459.75
2023-04-24T00:30:51.412Z,97471.69
2023-04-24T00:33:18.090Z,97477.78
2023-04-24T00:35:44.705Z,97498.69
2023-04-24T00:38:11.332Z,97522.06
2023-04-24T00:40:37.975Z,97524.97
2023-04-24T00:43:04.712Z,97529.75
2023-04-24T00:45:32.374Z,97533.13
2023-04-24T00:47:59.195Z,97529.16
2023-04-24T00:50:26.443Z,97525.38
2023-04-24T00:52:53.808Z,97518.44
2023-04-24T00:55:22.699Z,97524.59
2023-04-24T00:57:50.448Z,97526.59
2023-04-24T01:00:18.385Z,97522.84
2023-04-24T01:02:46.489Z,97514.16
2023-04-24T01:05:16.136Z,97524.00
2023-04-24T01:07:46.584Z,97528.69
2023-04-24T01:10:14.815Z,97534.31
2023-04-24T01:12:41.717Z,97557.34
2023-04-24T01:15:09.521Z,97563.88
2023-04-24T01:17:36.998Z,97566.56
2023-04-24T01:20:08.249Z,97567.44
2023-04-24T01:22:35.735Z,97564.66
2023-04-24T01:25:04.036Z,97574.00
2023-04-24T01:27:31.281Z,97575.59
2023-04-24T01:29:59.225Z,97585.69
2023-04-24T01:32:27.257Z,97590.53
2023-04-24T01:34:56.256Z,97599.56
2023-04-24T01:37:23.081Z,97601.56
2023-04-24T01:39:49.835Z,97609.88
2023-04-24T01:42:17.635Z,97617.13
2023-04-24T01:44:44.929Z,97622.78
2023-04-24T01:47:12.408Z,97630.31
2023-04-24T01:49:39.922Z,97626.53
2023-04-24T01:52:07.982Z,97629.34
2023-04-24T01:54:36.001Z,97636.06
2023-04-24T01:57:03.671Z,97640.44
2023-04-24T01:59:32.633Z,97645.97
2023-04-24T02:01:59.259Z,97646.56
2023-04-24T02:04:26.010Z,97650.53
2023-04-24T02:06:52.664Z,97651.13
2023-04-24T02:09:19.278Z,97653.81
2023-04-24T02:11:47.092Z,97645.97
2023-04-24T02:14:13.714Z,97663.22
2023-04-24T02:16:40.430Z,97653.72
2023-04-24T02:19:07.188Z,97655.09
2023-04-24T02:21:34.176Z,97639.41
2023-04-24T02:24:01.074Z,97646.06
2023-04-24T02:26:27.985Z,97650.13
2023-04-24T02:28:54.682Z,97648.38
2023-04-24T02:31:21.322Z,97656.09
2023-04-24T02:33:47.905Z,97660.25
2023-04-24T02:36:16.490Z,97663.44
2023-04-24T02:38:43.120Z,97662.22
2023-04-24T02:41:09.822Z,97680.88
2023-04-24T02:43:36.422Z,97697.34
2023-04-24T02:46:03.183Z,97703.28
2023-04-24T02:48:29.924Z,97694.75
2023-04-24T02:50:56.609Z,97707.75
2023-04-24T02:53:24.406Z,97694.97
2023-04-24T02:55:51.519Z,97699.13
2023-04-24T02:58:19.643Z,97697.03
2023-04-24T03:00:47.970Z,97711.19
2023-04-24T03:03:15.182Z,97716.56
2023-04-24T03:05:42.011Z,97717.97
2023-04-24T03:08:08.634Z,97718.16
2023-04-24T03:10:35.315Z,97718.22
2023-04-24T03:13:01.959Z,97720.16
2023-04-24T03:15:30.296Z,97719.66
2023-04-24T03:17:57.012Z,97716.56
2023-04-24T03:20:25.257Z,97720.31
2023-04-24T03:22:51.860Z,97717.34
2023-04-24T03:25:19.969Z,97720.75
2023-04-24T03:27:47.177Z,97729.66
2023-04-24T03:30:13.904Z,97720.03
2023-04-24T03:32:40.747Z,97735.63
2023-04-24T03:35:10.348Z,97734.22
2023-04-24T03:37:36.960Z,97731.75
2023-04-24T03:40:04.068Z,97729.16
2023-04-24T03:42:30.739Z,97741.56
2023-04-24T03:44:57.331Z,97765.16
2023-04-24T03:47:25.260Z,97765.56
2023-04-24T03:49:52.170Z,97773.09
2023-04-24T03:52:18.770Z,97775.88
2023-04-24T03:54:46.456Z,97780.63
2023-04-24T03:57:13.525Z,97787.69
2023-04-24T03:59:41.683Z,97791.25
2023-04-24T04:02:08.712Z,97803.03
2023-04-24T04:04:35.651Z,97807.72
2023-04-24T04:07:03.845Z,97808.00
2023-04-24T04:09:30.618Z,97815.75
2023-04-24T04:11:57.394Z,97815.75
2023-04-24T04:14:24.493Z,97828.06
2023-04-24T04:16:53.168Z,97842.09
2023-04-24T04:19:21.453Z,97845.28
2023-04-24T04:21:53.097Z,97854.47
2023-04-24T04:24:23.097Z,97860.19
2023-04-24T04:26:52.115Z,97873.66
2023-04-24T04:29:19.521Z,97878.66
2023-04-24T04:31:47.655Z,97879.44
2023-04-24T04:34:15.248Z,97889.72
2023-04-24T04:36:45.395Z,97891.31
2023-04-24T04:39:12.008Z,97894.94
2023-04-24T04:41:41.474Z,97894.13
2023-04-24T04:44:09.911Z,97898.78
2023-04-24T04:46:38.406Z,97902.97
2023-04-24T04:49:05.130Z,97911.00
2023-04-24T04:51:32.178Z,97924.19
2023-04-24T04:53:58.796Z,97923.38
2023-04-24T04:56:25.873Z,97928.06
2023-04-24T04:58:52.522Z,97931.91
2023-04-24T05:01:19.732Z,97936.78
2023-04-24T05:03:47.855Z,97937.00
2023-04-24T05:06:14.630Z,97939.09
2023-04-24T05:08:41.255Z,97944.22
2023-04-24T05:11:08.119Z,97952.47
2023-04-24T05:13:39.842Z,97945.88
2023-04-24T05:16:08.120Z,97962.81
2023-04-24T05:18:35.063Z,97971.91
2023-04-24T05:21:02.397Z,97973.94
2023-04-24T05:23:29.068Z,97966.44
2023-04-24T05:25:55.802Z,97966.78
2023-04-24T05:28:22.394Z,97963.25
2023-04-24T05:30:50.368Z,97964.44
2023-04-24T05:33:17.038Z,97967.44
2023-04-24T05:35:46.913Z,97962.38
2023-04-24T05:38:14.021Z,97956.41
2023-04-24T05:40:41.246Z,97954.03
2023-04-24T05:43:07.864Z,97963.47
2023-04-24T05:45:38.097Z,97960.97
2023-04-24T05:48:05.097Z,97962.41
2023-04-24T05:50:31.814Z,97957.13
2023-04-24T05:53:03.043Z,97959.31
2023-04-24T05:55:32.607Z,97946.03
2023-04-24T05:57:59.517Z,97949.91
2023-04-24T06:00:27.139Z,97952.13
2023-04-24T06:02:54.271Z,97954.81
2023-04-24T06:05:21.406Z,97955.69
2023-04-24T06:07:49.142Z,97961.72
2023-04-24T06:10:17.854Z,97963.13
2023-04-24T06:12:44.515Z,97960.63
2023-04-24T06:15:11.417Z,97959.94
2023-04-24T06:17:38.093Z,97964.50
2023-04-24T06:20:06.729Z,97959.94
2023-04-24T06:22:33.329Z,97964.25
2023-04-24T06:25:02.930Z,97970.31
2023-04-24T06:27:29.592Z,97984.09
2023-04-24T06:29:57.782Z,97981.44
2023-04-24T06:32:25.842Z,97995.94
2023-04-24T06:34:53.736Z,97998.31
2023-04-24T06:37:21.748Z,97999.16
2023-04-24T06:39:48.629Z,98005.34
2023-04-24T06:42:15.700Z,98015.16
2023-04-24T06:44:42.384Z,98016.44
2023-04-24T06:47:10.052Z,98012.81
2023-04-24T06:49:37.628Z,98011.50
2023-04-24T06:52:04.592Z,98017.88
2023-04-24T06:54:33.701Z,98048.41
2023-04-24T06:57:01.962Z,98056.06
2023-04-24T06:59:30.599Z,98059.81
2023-04-24T07:01:57.908Z,98060.44
2023-04-24T07:04:26.319Z,98061.84
2023-04-24T07:06:56.860Z,98066.69
2023-04-24T07:09:24.783Z,98089.69
2023-04-24T07:11:52.370Z,98092.75
2023-04-24T07:14:20.122Z,98105.59
2023-04-24T07:16:46.973Z,98107.97
2023-04-24T07:19:14.912Z,98113.34
2023-04-24T07:21:41.677Z,98123.91
2023-04-24T07:24:11.974Z,98127.41
2023-04-24T07:26:39.831Z,98156.94
2023-04-24T07:29:06.938Z,98175.66
2023-04-24T07:31:33.762Z,98184.59
2023-04-24T07:34:00.687Z,98185.00
2023-04-24T07:36:27.989Z,98192.97
2023-04-24T07:38:55.404Z,98200.94
2023-04-24T07:41:23.581Z,98190.00
2023-04-24T07:43:51.720Z,98195.88
2023-04-24T07:46:18.419Z,98207.09
2023-04-24T07:48:45.222Z,98200.44
2023-04-24T07:51:14.551Z,98202.91
2023-04-24T07:53:41.447Z,98203.91
2023-04-24T07:56:08.627Z,98210.69
2023-04-24T07:58:35.666Z,98204.31
2023-04-24T08:01:02.445Z,98215.38
2023-04-24T08:03:29.221Z,98219.84
2023-04-24T08:05:56.329Z,98216.03
2023-04-24T08:08:23.903Z,98222.56
2023-04-24T08:10:52.193Z,98248.13
2023-04-24T08:13:20.178Z,98241.63
2023-04-24T08:15:47.179Z,98239.66
2023-04-24T08:18:14.829Z,98243.63
2023-04-24T08:20:41.544Z,98237.53
2023-04-24T08:23:08.209Z,98229.84
2023-04-24T08:25:37.395Z,98239.06
2023-04-24T08:28:06.348Z,98240.88
2023-04-24T08:30:33.079Z,98244.94
2023-04-24T08:32:59.778Z,98256.59
2023-04-24T08:35:26.868Z,98267.19
2023-04-24T08:37:54.791Z,98282.03
2023-04-24T08:40:28.868Z,98287.50
2023-04-24T08:42:59.325Z,98280.53
2023-04-24T08:45:27.163Z,98275.34
2023-04-24T08:47:57.283Z,98272.72
2023-04-24T08:50:24.207Z,98292.75
2023-04-24T08:52:54.185Z,98285.47
2023-04-24T08:55:22.367Z,98269.41
2023-04-24T08:57:55.096Z,98278.69
2023-04-24T09:00:23.119Z,98303.78
2023-04-24T09:02:54.694Z,98304.88
2023-04-24T09:05:22.866Z,98306.84
2023-04-24T09:08:01.050Z,98320.00
2023-04-24T09:10:28.492Z,98311.94
2023-04-24T09:12:56.059Z,98310.44
2023-04-24T09:15:22.707Z,98316.31
2023-04-24T09:17:49.438Z,98318.53
2023-04-24T09:20:16.386Z,98308.66
2023-04-24T09:22:46.084Z,98322.34
2023-04-24T09:25:13.814Z,98324.22
2023-04-24T09:27:47.055Z,98316.81
2023-04-24T09:30:14.819Z,98303.78
2023-04-24T09:32:43.024Z,98298.69
2023-04-24T09:35:15.453Z,98297.88
2023-04-24T09:37:45.934Z,98304.16
2023-04-24T09:40:22.623Z,98303.28
2023-04-24T09:42:57.706Z,98301.66
2023-04-24T09:45:37.979Z,98299.25
2023-04-24T09:48:07.478Z,98293.41
2023-04-24T09:50:35.479Z,98296.09
2023-04-24T09:53:09.875Z,98280.78
2023-04-24T09:55:41.780Z,98284.69
2023-04-24T09:58:10.295Z,98295.69
2023-04-24T10:00:38.249Z,98298.88
2023-04-24T10:03:06.966Z,98295.28
2023-04-24T10:05:36.089Z,98290.81
2023-04-24T10:08:05.852Z,98274.34
2023-04-24T10:10:34.768Z,98282.19
2023-04-24T10:13:02.419Z,98279.31
2023-04-24T10:15:29.181Z,98271.84
2023-04-24T10:17:56.857Z,98280.69
2023-04-24T10:20:26.997Z,98283.47
2023-04-24T10:22:55.056Z,98287.38
2023-04-24T10:25:25.138Z,98291.06
2023-04-24T10:27:53.496Z,98287.28
2023-04-24T10:30:21.232Z,98294.50
2023-04-24T10:32:47.888Z,98294.50
2023-04-24T10:35:16.882Z,98295.59
2023-04-24T10:37:50.609Z,98302.16
2023-04-24T10:40:20.182Z,98301.78
2023-04-24T10:42:52.903Z,98298.97
2023-04-24T10:45:22.903Z,98299.09
2023-04-24T10:48:15.083Z,98293.53
2023-04-24T10:50:46.358Z,98292.50
2023-04-24T10:53:21.609Z,98294.09
2023-04-24T10:55:54.253Z,98300.69
2023-04-24T10:58:26.372Z,98306.06
2023-04-24T11:01:03.924Z,98309.34
2023-04-24T11:03:32.675Z,98302.50
2023-04-24T11:05:59.490Z,98300.59
2023-04-24T11:08:38.706Z,98297.50
2023-04-24T11:11:16.937Z,98293.94
2023-04-24T11:13:58.281Z,98289.25
2023-04-24T11:16:35.282Z,98303.00
2023-04-24T11:19:21.569Z,98302.50
2023-04-24T11:21:48.143Z,98296.53
2023-04-24T11:24:36.394Z,98304.97
2023-04-24T11:27:05.695Z,98304.91
2023-04-24T11:30:01.818Z,98305.19
2023-04-24T11:32:37.239Z,98293.34
2023-04-24T11:35:05.696Z,98298.91
2023-04-24T11:37:37.239Z,98289.75
2023-04-24T11:40:06.834Z,98291.13
2023-04-24T11:42:41.751Z,98278.56
2023-04-24T11:45:09.300Z,98284.75
2023-04-24T11:47:36.138Z,98297.13
2023-04-24T11:50:04.522Z,98291.34
2023-04-24T11:52:32.372Z,98282.09
2023-04-24T11:55:02.311Z,98287.25
2023-04-24T11:57:34.500Z,98280.97
2023-04-24T12:00:05.598Z,98281.38
2023-04-24T12:02:32.700Z,98283.34
2023-04-24T12:04:59.492Z,98290.53
2023-04-24T12:07:26.371Z,98296.50
2023-04-24T12:10:01.223Z,98288.16
2023-04-24T12:12:28.843Z,98291.72
2023-04-24T12:15:01.627Z,98293.44
2023-04-24T12:17:32.546Z,98284.56
2023-04-24T12:20:03.520Z,98293.53
2023-04-24T12:22:57.112Z,98297.72
2023-04-24T12:25:29.292Z,98293.66
2023-04-24T12:28:17.192Z,98280.56
2023-04-24T12:30:49.355Z,98281.06
2023-04-24T12:33:22.052Z,98283.34
2023-04-24T12:35:52.759Z,98280.56
2023-04-24T12:38:25.044Z,98275.78
2023-04-24T12:41:08.706Z,98279.78
2023-04-24T12:43:37.820Z,98267.84
2023-04-24T12:46:07.260Z,98252.66
2023-04-24T12:48:33.897Z,98251.88
2023-04-24T12:51:04.061Z,98252.28
2023-04-24T12:53:32.091Z,98252.56
2023-04-24T12:56:01.567Z,98259.03
2023-04-24T12:58:28.264Z,98276.28
2023-04-24T13:00:56.515Z,98286.56
2023-04-24T13:03:23.792Z,98282.19
2023-04-24T13:05:51.773Z,98287.28
2023-04-24T13:08:18.352Z,98286.69
2023-04-24T13:10:45.030Z,98280.97
2023-04-24T13:13:11.660Z,98267.53
2023-04-24T13:15:39.007Z,98267.84
2023-04-24T13:18:05.819Z,98269.63
2023-04-24T13:20:32.962Z,98263.38
2023-04-24T13:22:59.621Z,98261.16
2023-04-24T13:25:26.284Z,98262.97
2023-04-24T13:27:53.014Z,98264.06
2023-04-24T13:30:21.038Z,98255.72
2023-04-24T13:32:47.792Z,98249.72
2023-04-24T13:35:14.621Z,98255.50
2023-04-24T13:37:41.317Z,98261.69
2023-04-24T13:40:08.957Z,98263.78
2023-04-24T13:42:35.869Z,98257.06
2023-04-24T13:45:13.826Z,98247.03
2023-04-24T13:47:52.230Z,98242.66
2023-04-24T13:50:19.160Z,98241.84
2023-04-24T13:52:45.864Z,98234.97
2023-04-24T13:55:12.824Z,98234.38
2023-04-24T13:57:40.039Z,98230.41
2023-04-24T14:00:12.565Z,98229.59
2023-04-24T14:02:39.352Z,98217.84
2023-04-24T14:05:07.590Z,98216.06
2023-04-24T14:07:34.300Z,98199.94
2023-04-24T14:10:01.088Z,98191.47
2023-04-24T14:12:29.444Z,98177.47
2023-04-24T14:14:56.357Z,98180.03
2023-04-24T14:17:24.643Z,98181.81
2023-04-24T14:19:54.284Z,98169.19
2023-04-24T14:22:21.249Z,98164.03
2023-04-24T14:24:49.178Z,98174.84
2023-04-24T14:27:16.000Z,98176.44
2023-04-24T14:29:43.774Z,98160.72
2023-04-24T14:32:10.362Z,98162.72
2023-04-24T14:34:38.186Z,98164.09
2023-04-24T14:37:06.417Z,98164.53
2023-04-24T14:39:34.389Z,98149.88
2023-04-24T14:42:02.200Z,98159.91
2023-04-24T14:44:28.787Z,98173.69
2023-04-24T14:46:55.670Z,98165.81
2023-04-24T14:49:22.363Z,98175.66
2023-04-24T14:51:49.053Z,98173.19
2023-04-24T14:54:15.919Z,98177.84
2023-04-24T14:56:44.756Z,98174.47
2023-04-24T14:59:12.143Z,98183.41
2023-04-24T15:01:38.783Z,98183.41
2023-04-24T15:04:06.029Z,98188.78
2023-04-24T15:06:33.917Z,98187.28
2023-04-24T15:09:00.874Z,98199.72
2023-04-24T15:11:27.651Z,98200.94
2023-04-24T15:13:54.352Z,98206.19
2023-04-24T15:16:21.592Z,98204.09
2023-04-24T15:18:48.266Z,98204.19
2023-04-24T15:21:14.925Z,98208.69
2023-04-24T15:23:41.657Z,98205.88
2023-04-24T15:26:08.393Z,98201.59
2023-04-24T15:28:35.072Z,98197.13
2023-04-24T15:31:01.681Z,98201.59
2023-04-24T15:33:29.418Z,98194.69
2023-04-24T15:35:56.089Z,98179.00
2023-04-24T15:38:22.672Z,98180.59
2023-04-24T15:40:50.796Z,98170.22
2023-04-24T15:43:17.672Z,98168.63
2023-04-24T15:45:44.740Z,98166.97
2023-04-24T15:48:12.790Z,98162.38
2023-04-24T15:50:39.624Z,98166.22
2023-04-24T15:53:06.661Z,98157.06
2023-04-24T15:55:33.934Z,98154.03
2023-04-24T15:58:02.093Z,98149.38
2023-04-24T16:00:35.205Z,98140.53
2023-04-24T16:03:02.264Z,98142.22
2023-04-24T16:05:29.427Z,98138.13
2023-04-24T16:07:56.118Z,98139.72
2023-04-24T16:10:22.750Z,98128.19
2023-04-24T16:12:51.724Z,98131.75
2023-04-24T16:15:18.423Z,98121.59
2023-04-24T16:17:45.445Z,98123.53
2023-04-24T16:20:12.669Z,98118.84
2023-04-24T16:22:40.054Z,98126.44
2023-04-24T16:25:08.564Z,98121.00
2023-04-24T16:27:36.425Z,98126.16
2023-04-24T16:30:03.553Z,98111.03
2023-04-24T16:32:30.216Z,98109.44
2023-04-24T16:34:56.879Z,98097.75
2023-04-24T16:37:23.582Z,98097.63
2023-04-24T16:39:50.506Z,98087.28
2023-04-24T16:42:17.177Z,98090.16
2023-04-24T16:44:43.888Z,98080.25
2023-04-24T16:47:14.816Z,98083.22
2023-04-24T16:49:43.212Z,98072.06
2023-04-24T16:52:11.221Z,98081.63
2023-04-24T16:54:39.324Z,98073.25
2023-04-24T16:57:07.864Z,98073.41
2023-04-24T16:59:34.970Z,98078.19
2023-04-24T17:02:02.025Z,98078.19
2023-04-24T17:04:29.109Z,98073.41
2023-04-24T17:06:55.921Z,98067.63
2023-04-24T17:09:23.797Z,98071.72
2023-04-24T17:11:50.554Z,98075.78
2023-04-24T17:14:18.568Z,98073.19
2023-04-24T17:16:47.444Z,98061.66
2023-04-24T17:19:14.313Z,98068.25
2023-04-24T17:21:41.071Z,98073.41
2023-04-24T17:24:07.714Z,98063.84
2023-04-24T17:26:34.489Z,98066.53
2023-04-24T17:29:01.154Z,98071.41
2023-04-24T17:31:27.841Z,98066.69
2023-04-24T17:33:54.556Z,98075.28
2023-04-24T17:36:21.254Z,98077.91
2023-04-24T17:38:48.794Z,98073.06
2023-04-24T17:41:16.906Z,98077.75
2023-04-24T17:43:46.966Z,98071.59
2023-04-24T17:46:13.797Z,98067.19
2023-04-24T17:48:42.156Z,98066.75
2023-04-24T17:51:08.807Z,98074.88
2023-04-24T17:53:35.576Z,98066.75
2023-04-24T17:56:03.929Z,98060.88
2023-04-24T17:58:31.349Z,98062.56
2023-04-24T18:00:59.655Z,98043.31
2023-04-24T18:03:26.719Z,98058.19
2023-04-24T18:05:54.153Z,98061.78
2023-04-24T18:08:20.880Z,98063.72
2023-04-24T18:10:47.685Z,98059.09
2023-04-24T18:13:14.385Z,98070.09
2023-04-24T18:15:43.342Z,98074.50
2023-04-24T18:18:11.460Z,98076.63
2023-04-24T18:20:38.642Z,98076.84
2023-04-24T18:23:05.672Z,98075.53
2023-04-24T18:25:32.411Z,98079.81
2023-04-24T18:27:59.060Z,98081.34
2023-04-24T18:30:26.256Z,98087.25
2023-04-24T18:32:53.961Z,98091.59
2023-04-24T18:35:21.722Z,98090.38
2023-04-24T18:37:48.560Z,98093.66
2023-04-24T18:40:15.796Z,98092.13
2023-04-24T18:42:42.942Z,98087.50
2023-04-24T18:45:14.666Z,98090.38
2023-04-24T18:47:42.247Z,98090.00
2023-04-24T18:50:10.821Z,98078.78
2023-04-24T18:52:38.854Z,98073.34
2023-04-24T18:55:08.106Z,98070.25
2023-04-24T18:57:34.732Z,98064.19
2023-04-24T19:00:02.673Z,98056.56
2023-04-24T19:02:29.461Z,98047.22
2023-04-24T19:04:56.221Z,98050.56
2023-04-24T19:07:22.970Z,98042.47
2023-04-24T19:09:49.624Z,98046.69
2023-04-24T19:12:16.684Z,98041.22
2023-04-24T19:14:43.783Z,98035.50
2023-04-24T19:17:11.066Z,98036.13
2023-04-24T19:19:37.716Z,98033.31
2023-04-24T19:22:04.520Z,98031.75
2023-04-24T19:24:33.457Z,98027.38
2023-04-24T19:27:00.496Z,98022.59
2023-04-24T19:29:27.267Z,98026.97
2023-04-24T19:31:54.636Z,98026.22
2023-04-24T19:34:21.441Z,98024.34
2023-04-24T19:36:48.214Z,98030.28
2023-04-24T19:39:15.740Z,98036.44
2023-04-24T19:41:42.353Z,98039.84
2023-04-24T19:44:08.979Z,98023.78
2023-04-24T19:46:36.861Z,98030.78
2023-04-24T19:49:03.565Z,98027.53
2023-04-24T19:51:32.382Z,98032.81
2023-04-24T19:53:59.639Z,98038.25
2023-04-24T19:56:27.011Z,98037.22
2023-04-24T19:58:53.673Z,98033.09
2023-04-24T20:01:22.008Z,98036.59
2023-04-24T20:03:48.744Z,98023.78
2023-04-24T20:06:15.652Z,98023.78
2023-04-24T20:08:42.792Z,98017.84
2023-04-24T20:11:09.687Z,98020.59
2023-04-24T20:13:36.350Z,98012.84
2023-04-24T20:16:05.530Z,98006.03
2023-04-24T20:18:33.596Z,98003.34
2023-04-24T20:21:01.596Z,97994.81
2023-04-24T20:23:28.251Z,98001.16
2023-04-24T20:25:58.396Z,97994.22
2023-04-24T20:28:30.334Z,97999.94
2023-04-24T20:30:58.337Z,97994.94
2023-04-24T20:33:25.881Z,97986.84
2023-04-24T20:35:53.850Z,97980.97
2023-04-24T20:38:22.357Z,97978.28
2023-04-24T20:43:20.306Z,97976.06
2023-04-24T20:45:48.507Z,97970.47
2023-04-24T20:48:15.245Z,97970.78
2023-04-24T20:50:42.678Z,97980.50
2023-04-24T20:53:09.482Z,97978.88
2023-04-24T20:55:37.107Z,97975.69
2023-04-24T20:58:04.305Z,97968.59
2023-04-24T21:00:32.634Z,97959.88
2023-04-24T21:02:59.559Z,97971.78
2023-04-24T21:05:26.551Z,97974.47
2023-04-24T21:07:56.042Z,97965.03
2023-04-24T21:10:24.241Z,97966.84
2023-04-24T21:12:52.406Z,97957.00
2023-04-24T21:15:18.994Z,97947.00
2023-04-24T21:17:47.324Z,97955.53
2023-04-24T21:20:14.240Z,97952.94
2023-04-24T21:22:42.329Z,97948.06
2023-04-24T21:25:09.764Z,97943.72
2023-04-24T21:27:37.684Z,97949.97
2023-04-24T21:30:09.205Z,97957.88
2023-04-24T21:32:36.169Z,97948.56
2023-04-24T21:35:02.896Z,97941.72
2023-04-24T21:37:29.533Z,97941.72
2023-04-24T21:39:56.135Z,97947.56
2023-04-24T21:42:24.029Z,97940.03
2023-04-24T21:44:50.718Z,97932.09
2023-04-24T21:47:18.566Z,97930.22
2023-04-24T21:49:45.379Z,97935.69
2023-04-24T21:52:12.034Z,97937.06
2023-04-24T21:54:39.069Z,97934.69
2023-04-24T21:57:06.254Z,97937.88
2023-04-24T21:59:34.335Z,97929.94
2023-04-24T22:02:02.029Z,97926.25
2023-04-24T22:04:28.932Z,97930.91
2023-04-24T22:06:56.094Z,97926.94
2023-04-24T22:09:22.830Z,97918.78
2023-04-24T22:11:49.473Z,97909.22
2023-04-24T22:14:18.359Z,97906.97
2023-04-24T22:16:46.067Z,97884.44
2023-04-24T22:19:14.118Z,97880.06
2023-04-24T22:21:41.331Z,97868.41
2023-04-24T22:24:08.959Z,97874.91
2023-04-24T22:26:35.876Z,97869.06
2023-04-24T22:29:02.998Z,97863.63
2023-04-24T22:31:29.752Z,97862.31
2023-04-24T22:33:56.483Z,97855.66
2023-04-24T22:36:23.075Z,97848.06
2023-04-24T22:38:49.785Z,97837.63
2023-04-24T22:41:16.520Z,97828.28
2023-04-24T22:43:43.184Z,97814.31
2023-04-24T22:46:10.959Z,97814.41
2023-04-24T22:48:37.566Z,97810.75
2023-04-24T22:51:04.424Z,97812.72
2023-04-24T22:53:31.192Z,97803.50
2023-04-24T22:55:58.271Z,97812.63
2023-04-24T22:58:25.204Z,97807.44
2023-04-24T23:00:52.140Z,97792.97
2023-04-24T23:03:18.980Z,97804.19
2023-04-24T23:05:45.790Z,97799.50
2023-04-24T23:08:13.512Z,97785.03
2023-04-24T23:10:40.444Z,97772.13
2023-04-24T23:13:08.463Z,97770.53
2023-04-24T23:15:35.211Z,97764.69
2023-04-24T23:18:02.020Z,97759.44
2023-04-24T23:20:28.740Z,97754.47
2023-04-24T23:22:55.488Z,97759.81
2023-04-24T23:25:22.176Z,97741.00
2023-04-24T23:27:50.490Z,97746.16
2023-04-24T23:30:18.525Z,97745.34
2023-04-24T23:32:45.564Z,97735.72
2023-04-24T23:35:12.437Z,97731.38
2023-04-24T23:37:39.064Z,97726.50
2023-04-24T23:40:11.948Z,97729.38
2023-04-24T23:42:39.751Z,97731.47
2023-04-24T23:45:06.939Z,97729.69
2023-04-24T23:47:34.729Z,97724.34
2023-04-24T23:50:02.511Z,97724.75
2023-04-24T23:52:29.149Z,97730.69
2023-04-24T23:54:56.928Z,97731.28
2023-04-24T23:57:23.582Z,97719.38
2023-04-24T23:59:50.180Z,97723.16
